Time;durP1;ratioP1;P1;durP2;ratioP2;P2;SDS_P1;SDS_P2;PMS_P1;PMS_P2;Temp;Humidity;BMP_temperature;BMP_pressure;BME280_temperature;BME280_humidity;BME280_pressure;Samples;Min_cycle;Max_cycle;Signal;HPM_P1;HPM_P2
2021/10/06 00:00:19;;;;;;;5.28;1.67;;;;;;;10.66;89.86;100304.22;681652;28;1241;-54
2021/10/06 00:00:39;;;;;;;5.40;1.67;;;;;;;10.66;89.63;100305.09;681255;28;1355;-53
2021/10/06 00:01:00;;;;;;;6.93;1.90;;;;;;;10.58;90.21;100309.53;680602;28;4705;-56
2021/10/06 00:01:20;;;;;;;6.47;1.90;;;;;;;10.60;90.73;100304.28;681369;28;2037;-55
2021/10/06 00:01:40;;;;;;;6.18;2.10;;;;;;;10.54;91.22;100313.94;680557;28;1206;-56
2021/10/06 00:02:01;;;;;;;8.07;2.20;;;;;;;10.45;92.35;100303.56;679858;28;1312;-56
2021/10/06 00:02:21;;;;;;;6.53;2.03;;;;;;;10.63;90.42;100304.25;681541;28;1260;-54
2021/10/06 00:02:41;;;;;;;5.03;1.60;;;;;;;10.68;90.01;100307.69;681846;28;1205;-56
2021/10/06 00:03:02;;;;;;;6.03;1.70;;;;;;;10.60;90.69;100307.75;681085;28;1077;-55
2021/10/06 00:03:22;;;;;;;4.60;1.63;;;;;;;10.66;89.77;100312.06;681799;28;1081;-55
2021/10/06 00:03:43;;;;;;;4.27;1.73;;;;;;;10.60;90.26;100310.38;683417;28;1144;-53
2021/10/06 00:04:03;;;;;;;4.82;1.65;;;;;;;10.63;89.86;100312.09;683047;28;4323;-55
2021/10/06 00:04:24;;;;;;;6.03;1.60;;;;;;;10.68;89.42;100310.31;684355;28;3292;-56
2021/10/06 00:04:44;;;;;;;6.43;1.73;;;;;;;10.73;89.38;100308.53;683304;28;4176;-55
2021/10/06 00:05:05;;;;;;;4.93;1.70;;;;;;;10.74;88.75;100305.00;683882;28;1109;-54
2021/10/06 00:05:26;;;;;;;4.22;1.70;;;;;;;10.66;89.56;100307.72;683523;28;1622;-54
2021/10/06 00:05:48;;;;;;;5.70;1.83;;;;;;;10.62;89.74;100307.75;684217;28;1295;-54
2021/10/06 00:06:08;;;;;;;7.10;1.92;;;;;;;10.52;90.80;100310.47;684041;28;1133;-56
2021/10/06 00:06:29;;;;;;;6.68;2.20;;;;;;;10.56;91.48;100306.94;683527;28;1137;-54
2021/10/06 00:06:49;;;;;;;4.97;1.77;;;;;;;10.69;89.75;100306.81;681498;28;1193;-52
2021/10/06 00:07:09;;;;;;;5.18;1.70;;;;;;;10.59;90.25;100305.16;680885;28;4322;-56
2021/10/06 00:07:30;;;;;;;4.33;1.60;;;;;;;10.61;89.94;100306.88;681710;28;1007;-56
2021/10/06 00:07:50;;;;;;;5.15;1.50;;;;;;;10.62;90.72;100312.97;680898;28;3525;-56
2021/10/06 00:08:11;;;;;;;4.83;1.60;;;;;;;10.77;88.49;100304.97;680879;28;1397;-56
2021/10/06 00:08:31;;;;;;;5.23;1.47;;;;;;;10.76;88.62;100311.09;681569;28;1565;-52
2021/10/06 00:08:52;;;;;;;5.10;1.60;;;;;;;10.83;88.17;100314.50;681004;28;1008;-55
2021/10/06 00:09:12;;;;;;;4.50;1.63;;;;;;;10.83;88.90;100306.66;681942;28;1299;-56
2021/10/06 00:09:33;;;;;;;6.57;1.80;;;;;;;10.78;89.00;100309.31;682229;28;1232;-56
2021/10/06 00:09:53;;;;;;;5.45;1.58;;;;;;;10.71;89.72;100307.66;680660;28;5550;-56
2021/10/06 00:10:13;;;;;;;4.43;1.67;;;;;;;10.70;89.64;100311.13;681457;28;1196;-55
2021/10/06 00:10:34;;;;;;;4.50;1.50;;;;;;;10.84;87.84;100305.75;680935;28;1212;-56
2021/10/06 00:10:54;;;;;;;4.95;1.70;;;;;;;10.87;87.55;100310.97;680992;28;2140;-55
2021/10/06 00:11:15;;;;;;;5.33;1.57;;;;;;;10.77;88.78;100304.97;684507;28;3405;-56
2021/10/06 00:11:35;;;;;;;4.65;1.58;;;;;;;10.72;89.94;100304.16;684117;28;1061;-52
2021/10/06 00:11:56;;;;;;;4.03;1.63;;;;;;;10.82;88.21;100297.94;684388;28;1391;-54
2021/10/06 00:12:16;;;;;;;4.53;1.60;;;;;;;10.90;87.13;100303.94;683639;28;1272;-55
2021/10/06 00:12:37;;;;;;;4.80;1.63;;;;;;;10.95;87.08;100308.25;680179;28;1327;-54
2021/10/06 00:12:57;;;;;;;5.67;1.70;;;;;;;10.91;86.98;100307.44;678970;28;4398;-54
2021/10/06 00:13:18;;;;;;;7.23;1.80;;;;;;;10.85;87.14;100307.50;678949;29;1213;-56
2021/10/06 00:13:38;;;;;;;5.50;1.60;;;;;;;10.74;89.08;100299.78;678227;28;1288;-55
2021/10/06 00:13:59;;;;;;;5.13;1.57;;;;;;;10.65;90.41;100305.13;678773;28;1384;-55
2021/10/06 00:14:20;;;;;;;6.33;1.87;;;;;;;10.61;91.00;100308.66;681062;28;3789;-54
2021/10/06 00:14:40;;;;;;;5.60;1.98;;;;;;;10.57;90.10;100308.66;680851;28;1335;-53
2021/10/06 00:15:01;;;;;;;4.72;1.83;;;;;;;10.48;91.72;100315.72;681854;28;1320;-55
2021/10/06 00:15:21;;;;;;;5.32;2.10;;;;;;;10.40;92.35;100302.75;681086;28;1381;-54
2021/10/06 00:15:43;;;;;;;7.03;2.10;;;;;;;10.33;93.05;100306.28;681212;28;1176;-52
2021/10/06 00:16:04;;;;;;;8.40;1.90;;;;;;;10.28;93.61;100308.06;680141;28;4386;-55
2021/10/06 00:16:25;;;;;;;6.10;1.80;;;;;;;10.22;93.87;100307.22;682180;28;1125;-55
2021/10/06 00:16:45;;;;;;;5.22;1.80;;;;;;;10.18;94.39;100309.91;682543;28;2714;-55
2021/10/06 00:17:06;;;;;;;5.32;2.10;;;;;;;10.13;95.01;100311.66;684539;28;1232;-51
2021/10/06 00:17:27;;;;;;;5.73;2.20;;;;;;;10.06;95.37;100313.47;681167;28;3146;-57
2021/10/06 00:17:47;;;;;;;7.13;2.03;;;;;;;10.01;95.66;100307.41;681114;28;3352;-54
2021/10/06 00:18:07;;;;;;;7.00;1.90;;;;;;;10.01;95.38;100312.63;680953;28;1125;-54
2021/10/06 00:18:28;;;;;;;6.07;1.90;;;;;;;10.01;94.68;100313.50;680755;28;1228;-55
2021/10/06 00:18:48;;;;;;;6.47;2.03;;;;;;;9.99;93.99;100309.19;678051;28;1074;-56
2021/10/06 00:19:09;;;;;;;6.38;1.80;;;;;;;10.12;94.63;100316.03;678604;29;4515;-52
2021/10/06 00:19:29;;;;;;;5.60;1.70;;;;;;;10.14;94.67;100308.19;681311;28;1066;-56
2021/10/06 00:19:52;;;;;;;6.20;1.70;;;;;;;10.11;94.36;100314.31;681287;28;1358;-55
2021/10/06 00:20:13;;;;;;;6.95;1.80;;;;;;;10.20;93.09;100301.16;682058;28;1117;-56
2021/10/06 00:20:34;;;;;;;4.43;1.60;;;;;;;10.31;91.80;100300.19;679382;28;2593;-54
2021/10/06 00:20:55;;;;;;;4.03;1.60;;;;;;;10.50;90.15;100314.84;676264;29;3863;-54
2021/10/06 00:21:15;;;;;;;4.43;1.50;;;;;;;10.61;88.79;100304.28;678302;29;1235;-56
2021/10/06 00:21:35;;;;;;;4.77;1.33;;;;;;;10.72;88.31;100305.03;675607;29;1231;-56
2021/10/06 00:21:57;;;;;;;4.35;1.50;;;;;;;10.69;88.34;100301.59;675281;29;4611;-53
2021/10/06 00:22:21;;;;;;;4.28;1.60;;;;;;;10.58;89.69;100312.16;674286;29;1787;-56
2021/10/06 00:22:42;;;;;;;4.55;1.60;;;;;;;10.50;90.77;100306.16;676486;29;1066;-54
2021/10/06 00:23:05;;;;;;;4.40;1.60;;;;;;;10.46;91.74;100304.44;677804;29;1161;-56
2021/10/06 00:23:27;;;;;;;5.00;1.70;;;;;;;10.39;91.74;100308.84;679574;28;1233;-56
2021/10/06 00:23:47;;;;;;;6.40;1.80;;;;;;;10.35;91.57;100315.00;681324;28;1089;-54
2021/10/06 00:24:07;;;;;;;6.10;1.70;;;;;;;10.29;92.63;100305.44;681493;28;3629;-55
2021/10/06 00:24:28;;;;;;;5.70;1.90;;;;;;;10.25;92.93;100308.09;683627;28;1109;-54
2021/10/06 00:24:49;;;;;;;6.40;2.20;;;;;;;10.21;92.82;100310.72;683225;28;1373;-56
2021/10/06 00:25:09;;;;;;;6.37;1.80;;;;;;;10.10;94.55;100309.94;683102;28;4481;-55
2021/10/06 00:25:29;;;;;;;5.15;1.83;;;;;;;10.04;95.55;100310.88;681327;28;1228;-57
2021/10/06 00:25:50;;;;;;;6.60;1.93;;;;;;;10.07;95.28;100312.59;681418;28;1393;-54
2021/10/06 00:26:10;;;;;;;5.90;2.07;;;;;;;10.04;95.61;100313.47;681931;28;1108;-53
2021/10/06 00:26:31;;;;;;;4.72;1.92;;;;;;;10.01;95.63;100307.41;681568;28;1105;-53
2021/10/06 00:26:51;;;;;;;5.50;1.80;;;;;;;9.97;95.73;100317.03;683418;28;1050;-54
2021/10/06 00:27:11;;;;;;;5.07;1.60;;;;;;;9.92;95.95;100315.34;683075;28;4240;-51
2021/10/06 00:27:32;;;;;;;6.13;1.80;;;;;;;9.86;96.44;100319.72;682656;28;1211;-56
2021/10/06 00:27:52;;;;;;;5.93;1.70;;;;;;;9.85;95.97;100320.59;675973;28;4614;-55
2021/10/06 00:28:13;;;;;;;6.03;1.92;;;;;;;9.83;96.23;100314.53;675341;29;1628;-55
2021/10/06 00:28:34;;;;;;;6.90;2.03;;;;;;;9.88;96.20;100317.09;675729;29;1233;-55
2021/10/06 00:28:57;;;;;;;6.63;1.77;;;;;;;9.89;94.97;100316.22;675997;29;1145;-55
2021/10/06 00:29:17;;;;;;;6.78;1.90;;;;;;;9.89;95.39;100318.81;676307;29;1209;-56
2021/10/06 00:29:38;;;;;;;6.03;1.90;;;;;;;9.87;95.57;100315.34;676715;28;1363;-55
2021/10/06 00:29:58;;;;;;;6.17;1.80;;;;;;;10.14;93.88;100316.03;681987;28;1292;-56
2021/10/06 00:30:18;;;;;;;7.25;1.85;;;;;;;10.28;91.58;100313.28;681409;28;4605;-54
2021/10/06 00:30:39;;;;;;;7.67;1.77;;;;;;;10.30;90.88;100304.56;680567;28;3256;-55
2021/10/06 00:31:00;;;;;;;6.40;1.58;;;;;;;10.33;90.85;100316.72;680360;28;4566;-53
2021/10/06 00:31:20;;;;;;;6.13;1.70;;;;;;;10.28;91.58;100305.44;680080;28;1315;-56
2021/10/06 00:31:40;;;;;;;4.95;1.70;;;;;;;10.20;93.01;100313.34;679986;28;1330;-56
2021/10/06 00:32:01;;;;;;;6.73;1.93;;;;;;;10.11;94.35;100319.53;679791;28;1371;-54
2021/10/06 00:32:21;;;;;;;7.85;2.03;;;;;;;10.00;95.28;100311.78;681010;28;1125;-56
2021/10/06 00:32:42;;;;;;;5.20;2.10;;;;;;;9.94;95.60;100311.84;680759;28;1234;-55
2021/10/06 00:33:02;;;;;;;6.55;1.95;;;;;;;9.94;95.76;100311.84;680984;28;1347;-56
2021/10/06 00:33:26;;;;;;;7.33;1.80;;;;;;;9.94;94.91;100311.84;680171;28;1412;-55
2021/10/06 00:33:47;;;;;;;4.97;1.50;;;;;;;9.98;94.40;100317.88;680362;28;3267;-56
2021/10/06 00:34:07;;;;;;;5.63;1.70;;;;;;;9.97;93.65;100316.13;680590;28;4307;-56
2021/10/06 00:34:28;;;;;;;5.83;1.80;;;;;;;9.97;93.88;100317.03;681754;28;1258;-56
2021/10/06 00:34:48;;;;;;;8.07;1.88;;;;;;;9.97;94.42;100317.03;681370;28;1280;-55
2021/10/06 00:35:10;;;;;;;6.67;1.83;;;;;;;9.95;94.88;100310.06;682283;28;1087;-55
2021/10/06 00:35:30;;;;;;;5.13;1.70;;;;;;;9.94;94.64;100321.41;681613;28;1013;-53
2021/10/06 00:35:52;;;;;;;5.53;1.70;;;;;;;9.98;94.41;100315.28;681962;28;1252;-54
2021/10/06 00:36:12;;;;;;;6.63;1.90;;;;;;;9.97;94.57;100321.38;680814;28;1034;-55
2021/10/06 00:36:33;;;;;;;6.80;1.90;;;;;;;10.01;94.50;100318.75;680794;28;1176;-54
2021/10/06 00:36:53;;;;;;;7.17;1.83;;;;;;;10.28;92.08;100313.28;680029;28;4471;-56
2021/10/06 00:37:14;;;;;;;5.97;1.73;;;;;;;10.36;90.54;100314.13;681803;28;3068;-55
2021/10/06 00:37:35;;;;;;;5.53;1.83;;;;;;;10.33;90.60;100312.38;681378;28;3623;-54
2021/10/06 00:37:55;;;;;;;4.33;1.60;;;;;;;10.29;91.00;100310.66;681298;28;1168;-54
2021/10/06 00:38:16;;;;;;;5.10;1.53;;;;;;;10.26;92.85;100312.41;681543;28;1144;-56
2021/10/06 00:38:38;;;;;;;6.13;1.60;;;;;;;10.17;93.13;100313.38;681473;28;1145;-54
2021/10/06 00:38:58;;;;;;;4.95;1.60;;;;;;;10.22;92.65;100312.47;678538;29;1293;-56
2021/10/06 00:39:19;;;;;;;4.10;1.47;;;;;;;10.42;89.69;100311.44;681744;28;3769;-54
2021/10/06 00:39:39;;;;;;;5.35;1.40;;;;;;;10.50;88.80;100317.44;680102;28;1419;-56
2021/10/06 00:39:59;;;;;;;5.27;1.50;;;;;;;10.53;88.78;100313.94;680710;28;4526;-56
2021/10/06 00:40:20;;;;;;;5.00;1.70;;;;;;;10.48;89.03;100316.63;683890;28;3113;-57
2021/10/06 00:40:40;;;;;;;5.87;1.60;;;;;;;10.58;88.23;100312.16;682887;28;3607;-56
2021/10/06 00:41:02;;;;;;;5.57;1.63;;;;;;;10.72;87.24;100312.88;683389;28;1343;-55
2021/10/06 00:41:22;;;;;;;3.60;1.48;;;;;;;10.70;87.18;100322.50;680615;28;1296;-56
2021/10/06 00:41:43;;;;;;;3.60;1.30;;;;;;;10.67;87.60;100319.03;680994;28;1078;-57
2021/10/06 00:42:03;;;;;;;4.80;1.37;;;;;;;10.80;86.64;100318.03;681420;28;1219;-55
2021/10/06 00:42:24;;;;;;;6.63;1.70;;;;;;;10.84;86.71;100309.25;680972;28;1062;-57
2021/10/06 00:42:44;;;;;;;5.33;1.60;;;;;;;10.87;86.60;100311.84;681162;28;1173;-55
2021/10/06 00:43:05;;;;;;;3.85;1.30;;;;;;;10.80;86.71;100318.03;680565;28;4637;-56
2021/10/06 00:43:25;;;;;;;5.75;1.50;;;;;;;10.80;86.46;100317.13;683987;28;1231;-55
2021/10/06 00:43:45;;;;;;;4.17;1.47;;;;;;;10.71;87.41;100316.34;683277;28;2120;-56
2021/10/06 00:44:13;;;;;;;3.97;1.37;;;;;;;10.60;89.02;100313.00;681431;28;1166;-54
2021/10/06 00:44:35;;;;;;;5.47;1.60;;;;;;;10.47;90.95;100319.25;675269;29;1440;-57
2021/10/06 00:44:56;;;;;;;5.32;1.50;;;;;;;10.41;90.21;100321.91;676916;29;1335;-55
2021/10/06 00:45:16;;;;;;;3.65;1.50;;;;;;;10.30;92.20;100319.34;675871;29;1206;-55
2021/10/06 00:45:37;;;;;;;5.23;1.80;;;;;;;10.25;92.25;100322.00;675986;29;1147;-57
2021/10/06 00:45:57;;;;;;;5.95;1.90;;;;;;;10.26;92.03;100322.88;676842;29;4356;-56
2021/10/06 00:46:17;;;;;;;4.87;1.40;;;;;;;10.47;89.02;100319.25;677245;28;1261;-55
2021/10/06 00:46:38;;;;;;;5.10;1.35;;;;;;;10.53;88.55;100319.16;681070;28;1126;-56
2021/10/06 00:46:58;;;;;;;3.70;1.40;;;;;;;10.44;89.92;100317.53;681007;28;3227;-56
2021/10/06 00:47:19;;;;;;;5.07;1.40;;;;;;;10.44;90.02;100320.13;681450;28;1292;-53
2021/10/06 00:47:39;;;;;;;4.90;1.50;;;;;;;10.41;89.88;100327.97;681482;28;1438;-53
2021/10/06 00:47:59;;;;;;;5.18;1.50;;;;;;;10.30;91.76;100328.06;680692;28;1409;-57
2021/10/06 00:48:20;;;;;;;6.27;1.70;;;;;;;10.25;92.50;100326.38;680481;28;1359;-57
2021/10/06 00:48:40;;;;;;;6.03;1.80;;;;;;;10.19;92.22;100328.16;681214;28;1777;-55
2021/10/06 00:49:01;;;;;;;6.10;1.67;;;;;;;10.13;93.71;100332.56;680101;28;4711;-53
2021/10/06 00:49:21;;;;;;;5.20;1.60;;;;;;;10.25;91.71;100326.38;681897;28;1086;-56
2021/10/06 00:49:41;;;;;;;4.50;1.67;;;;;;;10.31;90.29;100326.31;681148;28;1050;-57
2021/10/06 00:50:03;;;;;;;5.70;1.73;;;;;;;10.22;91.63;100328.13;680483;28;1965;-57
2021/10/06 00:50:23;;;;;;;6.55;2.00;;;;;;;10.14;92.14;100332.56;681098;28;3597;-55
2021/10/06 00:50:45;;;;;;;4.40;1.58;;;;;;;10.12;91.79;100331.72;680637;28;1033;-55
2021/10/06 00:51:05;;;;;;;4.20;1.58;;;;;;;10.10;92.00;100332.59;681297;28;2017;-57
2021/10/06 00:51:25;;;;;;;5.73;1.67;;;;;;;10.07;92.54;100335.25;681372;28;1060;-57
2021/10/06 00:51:46;;;;;;;6.63;1.75;;;;;;;10.00;93.48;100337.88;681568;28;1212;-53
2021/10/06 00:52:07;;;;;;;6.17;1.80;;;;;;;9.95;93.78;100334.44;680949;28;4682;-53
2021/10/06 00:52:27;;;;;;;6.78;1.92;;;;;;;9.92;93.77;100338.84;681312;28;1021;-55
2021/10/06 00:52:48;;;;;;;7.63;1.90;;;;;;;9.91;93.44;100337.09;680966;28;1049;-55
2021/10/06 00:53:08;;;;;;;5.57;1.80;;;;;;;9.92;93.72;100339.69;683886;28;1172;-56
2021/10/06 00:53:29;;;;;;;5.30;1.77;;;;;;;10.09;92.73;100334.31;683212;28;3672;-58
2021/10/06 00:53:49;;;;;;;5.75;1.63;;;;;;;10.18;90.41;100331.66;683627;28;1259;-55
2021/10/06 00:54:10;;;;;;;4.93;1.50;;;;;;;10.15;90.66;100331.69;684044;28;1224;-57
2021/10/06 00:54:30;;;;;;;6.53;1.70;;;;;;;10.12;91.69;100336.06;683587;28;1449;-56
2021/10/06 00:54:51;;;;;;;6.53;1.90;;;;;;;10.09;91.47;100336.94;681022;28;4405;-56
2021/10/06 00:55:15;;;;;;;7.45;1.90;;;;;;;10.14;90.86;100337.78;681402;28;1083;-54
2021/10/06 00:55:37;;;;;;;5.70;1.60;;;;;;;10.11;91.81;100336.94;680935;28;1244;-55
2021/10/06 00:55:57;;;;;;;4.72;1.40;;;;;;;10.04;93.09;100344.81;681945;28;1311;-56
2021/10/06 00:56:18;;;;;;;5.00;1.57;;;;;;;10.00;93.35;100339.66;681306;28;1241;-55
2021/10/06 00:56:39;;;;;;;5.25;1.60;;;;;;;9.90;94.54;100344.06;681793;28;2010;-57
2021/10/06 00:56:59;;;;;;;4.60;1.70;;;;;;;9.85;94.20;100346.69;683947;28;4089;-55
2021/10/06 00:57:19;;;;;;;5.23;1.60;;;;;;;9.81;94.23;100346.72;682662;28;1173;-56
2021/10/06 00:57:42;;;;;;;4.93;1.60;;;;;;;9.79;94.34;100351.97;680758;28;1124;-56
2021/10/06 00:58:03;;;;;;;5.82;1.75;;;;;;;9.70;95.09;100346.78;681204;28;4476;-55
2021/10/06 00:58:23;;;;;;;5.32;1.58;;;;;;;9.71;94.56;100345.94;681635;28;1124;-56
2021/10/06 00:58:44;;;;;;;4.53;1.48;;;;;;;9.74;93.91;100351.13;681356;28;1155;-55
2021/10/06 00:59:05;;;;;;;6.25;1.77;;;;;;;9.72;93.76;100352.88;681055;28;1070;-56
2021/10/06 00:59:25;;;;;;;7.07;2.30;;;;;;;9.69;94.58;100351.16;681716;28;1109;-56
2021/10/06 00:59:46;;;;;;;6.22;2.00;;;;;;;9.69;94.07;100355.50;680829;28;3293;-55
2021/10/06 01:00:07;;;;;;;8.47;2.27;;;;;;;9.70;94.05;100350.25;679903;28;3771;-54
2021/10/06 01:00:28;;;;;;;8.20;2.10;;;;;;;9.70;94.31;100354.63;681232;28;1278;-56
2021/10/06 01:00:48;;;;;;;6.75;1.90;;;;;;;9.69;94.80;100358.09;681110;28;1279;-56
2021/10/06 01:01:09;;;;;;;5.97;1.73;;;;;;;9.70;93.97;100352.03;681035;28;4567;-53
2021/10/06 01:01:29;;;;;;;6.68;1.83;;;;;;;9.69;94.38;100351.16;680930;28;1335;-54
2021/10/06 01:01:50;;;;;;;8.97;2.10;;;;;;;9.70;94.02;100350.25;681317;28;1371;-55
2021/10/06 01:02:10;;;;;;;6.50;2.15;;;;;;;9.67;95.24;100344.22;679054;29;1086;-55
2021/10/06 01:02:30;;;;;;;7.47;2.30;;;;;;;9.61;95.39;100352.06;678621;29;1058;-57
2021/10/06 01:02:51;;;;;;;8.57;2.40;;;;;;;9.63;95.42;100355.53;678612;28;1161;-56
2021/10/06 01:03:12;;;;;;;8.93;2.30;;;;;;;9.59;96.14;100356.44;679370;28;3986;-57
2021/10/06 01:03:32;;;;;;;8.73;2.20;;;;;;;9.53;96.60;100350.38;680715;28;1421;-56
2021/10/06 01:03:54;;;;;;;8.38;2.20;;;;;;;9.51;96.58;100353.84;677352;28;4388;-57
2021/10/06 01:04:14;;;;;;;6.85;2.03;;;;;;;9.53;95.81;100350.38;681449;28;1276;-55
2021/10/06 01:04:35;;;;;;;5.38;1.90;;;;;;;9.54;95.88;100354.72;680412;28;1138;-56
2021/10/06 01:04:56;;;;;;;6.40;2.00;;;;;;;9.51;96.43;100359.06;681180;28;1260;-56
2021/10/06 01:05:17;;;;;;;6.30;1.83;;;;;;;9.50;96.36;100357.38;680945;28;1217;-57
2021/10/06 01:05:37;;;;;;;7.25;2.03;;;;;;;9.47;96.63;100362.56;679054;28;1473;-56
2021/10/06 01:05:58;;;;;;;5.40;1.90;;;;;;;9.44;96.62;100354.78;681303;28;1177;-56
2021/10/06 01:06:18;;;;;;;5.70;1.83;;;;;;;9.46;96.31;100359.13;678212;28;3943;-56
2021/10/06 01:06:39;;;;;;;5.88;1.75;;;;;;;9.45;96.46;100359.97;678400;28;1145;-57
2021/10/06 01:07:01;;;;;;;6.82;2.00;;;;;;;9.44;96.32;100366.09;677800;28;4480;-56
2021/10/06 01:07:21;;;;;;;6.65;1.83;;;;;;;9.47;96.14;100363.47;679213;28;1575;-55
2021/10/06 01:07:42;;;;;;;8.20;1.73;;;;;;;9.49;95.77;100361.69;681995;28;1128;-55
2021/10/06 01:08:04;;;;;;;8.50;1.97;;;;;;;9.50;95.96;100358.22;683175;28;1125;-56
2021/10/06 01:08:25;;;;;;;7.25;2.10;;;;;;;9.46;96.86;100359.13;683123;28;1318;-56
2021/10/06 01:08:45;;;;;;;7.20;2.08;;;;;;;9.48;96.20;100361.72;683373;28;1136;-56
2021/10/06 01:09:06;;;;;;;6.27;2.00;;;;;;;9.49;95.91;100361.69;684408;28;1080;-57
2021/10/06 01:09:28;;;;;;;5.17;2.00;;;;;;;9.47;96.25;100363.47;683355;28;3491;-56
2021/10/06 01:09:49;;;;;;;7.05;2.00;;;;;;;9.47;96.76;100365.19;680477;28;4085;-55
2021/10/06 01:10:12;;;;;;;5.53;1.80;;;;;;;9.48;96.70;100367.78;680420;28;4650;-56
2021/10/06 01:10:33;;;;;;;5.32;1.85;;;;;;;9.46;95.87;100356.50;681355;28;1172;-55
2021/10/06 01:10:54;;;;;;;6.63;1.98;;;;;;;9.45;96.42;100365.19;680826;28;1922;-56
2021/10/06 01:11:15;;;;;;;6.90;1.90;;;;;;;9.43;96.32;100368.69;682504;28;1165;-56
2021/10/06 01:11:37;;;;;;;6.70;1.80;;;;;;;9.56;96.52;100367.75;681055;28;1090;-57
2021/10/06 01:11:58;;;;;;;6.03;1.70;;;;;;;9.86;92.77;100366.72;680955;28;1370;-55
2021/10/06 01:12:20;;;;;;;5.82;1.60;;;;;;;9.97;91.15;100363.16;681591;28;1302;-57
2021/10/06 01:12:41;;;;;;;5.18;1.60;;;;;;;9.94;91.49;100363.16;680550;28;3672;-56
2021/10/06 01:13:03;;;;;;;5.50;1.70;;;;;;;9.89;92.50;100364.06;679962;28;4467;-57
2021/10/06 01:13:23;;;;;;;5.50;1.52;;;;;;;9.86;92.65;100366.72;681175;28;1452;-55
2021/10/06 01:13:44;;;;;;;4.37;1.40;;;;;;;9.81;93.55;100370.22;677972;28;1634;-56
2021/10/06 01:14:06;;;;;;;4.13;1.50;;;;;;;9.78;93.43;100365.03;678153;29;1078;-56
2021/10/06 01:14:26;;;;;;;4.57;1.50;;;;;;;9.75;93.36;100365.91;679615;28;1149;-55
2021/10/06 01:14:48;;;;;;;5.80;1.73;;;;;;;9.71;95.04;100367.66;681453;28;1781;-57
2021/10/06 01:15:13;;;;;;;5.90;1.83;;;;;;;9.70;94.69;100370.28;680376;28;1172;-56
2021/10/06 01:15:33;;;;;;;5.82;1.88;;;;;;;9.69;93.99;100368.53;680783;28;1259;-55
2021/10/06 01:15:54;;;;;;;5.10;1.70;;;;;;;9.68;93.89;100366.84;680871;28;4524;-57
2021/10/06 01:16:14;;;;;;;5.10;1.70;;;;;;;9.69;93.59;100358.09;680954;28;3715;-54
2021/10/06 01:16:35;;;;;;;5.05;1.70;;;;;;;9.69;93.30;100363.31;679413;28;1481;-53
2021/10/06 01:16:55;;;;;;;4.17;1.63;;;;;;;9.69;93.76;100369.44;680988;28;1132;-55
2021/10/06 01:17:16;;;;;;;5.27;1.60;;;;;;;9.69;93.75;100365.94;679608;28;1363;-55
2021/10/06 01:17:37;;;;;;;6.53;1.88;;;;;;;9.65;94.60;100366.81;681107;28;1258;-54
2021/10/06 01:17:57;;;;;;;7.80;1.80;;;;;;;9.59;94.87;100372.09;681014;28;1296;-55
2021/10/06 01:18:17;;;;;;;8.00;2.00;;;;;;;9.56;95.22;100374.72;681052;28;1346;-55
2021/10/06 01:18:38;;;;;;;8.37;2.50;;;;;;;9.53;95.29;100368.63;677903;28;1678;-57
2021/10/06 01:18:58;;;;;;;6.20;1.80;;;;;;;9.54;94.78;100365.16;678023;29;4425;-54
2021/10/06 01:19:24;;;;;;;5.13;1.70;;;;;;;9.50;95.91;100368.66;678573;29;3637;-56
2021/10/06 01:19:45;;;;;;;4.97;2.00;;;;;;;9.44;95.77;100371.31;677617;28;1152;-54
2021/10/06 01:20:08;;;;;;;4.47;1.88;;;;;;;9.41;96.46;100375.66;678591;28;1244;-55
2021/10/06 01:20:31;;;;;;;6.07;1.90;;;;;;;9.39;96.53;100370.47;679938;28;1164;-55
2021/10/06 01:20:51;;;;;;;7.00;2.10;;;;;;;9.38;96.95;100374.78;681339;28;1256;-56
2021/10/06 01:21:19;;;;;;;6.95;2.10;;;;;;;9.38;96.63;100368.72;682019;28;1156;-55
2021/10/06 01:21:42;;;;;;;5.32;2.03;;;;;;;9.37;97.17;100367.88;681503;28;1358;-57
2021/10/06 01:22:03;;;;;;;6.05;2.20;;;;;;;9.41;96.45;100381.75;680506;28;4639;-55
2021/10/06 01:22:23;;;;;;;5.68;1.80;;;;;;;9.51;95.54;100375.63;681256;28;3456;-54
2021/10/06 01:22:44;;;;;;;5.35;1.70;;;;;;;9.59;94.14;100377.31;680665;28;3972;-54
2021/10/06 01:23:07;;;;;;;6.78;2.00;;;;;;;9.59;93.97;100372.09;681412;28;1387;-55
2021/10/06 01:23:27;;;;;;;6.78;2.00;;;;;;;9.64;94.36;100372.94;680934;28;1101;-52
2021/10/06 01:23:49;;;;;;;5.97;2.10;;;;;;;9.71;94.43;100377.25;681146;28;1180;-57
2021/10/06 01:24:10;;;;;;;6.40;1.92;;;;;;;9.86;92.40;100371.94;681753;28;1300;-57
2021/10/06 01:24:30;;;;;;;6.80;1.95;;;;;;;9.84;92.01;100368.47;681423;28;1072;-57
2021/10/06 01:24:51;;;;;;;5.27;1.90;;;;;;;9.81;92.99;100371.09;681678;28;4422;-56
2021/10/06 01:25:14;;;;;;;5.30;1.90;;;;;;;9.77;93.15;100376.34;683031;28;1109;-57
2021/10/06 01:25:35;;;;;;;5.82;1.90;;;;;;;9.77;92.32;100374.59;681745;28;1912;-56
2021/10/06 01:25:55;;;;;;;5.88;2.10;;;;;;;9.73;93.24;100369.41;683844;28;1405;-55
2021/10/06 01:26:20;;;;;;;7.77;2.00;;;;;;;9.71;93.46;100378.09;683746;28;1489;-55
2021/10/06 01:26:40;;;;;;;6.57;1.90;;;;;;;9.70;94.00;100378.13;682378;28;1335;-55
2021/10/06 01:27:01;;;;;;;6.87;2.00;;;;;;;9.67;94.65;100372.94;683591;28;1303;-56
2021/10/06 01:27:21;;;;;;;7.50;2.23;;;;;;;9.67;94.03;100376.38;682279;28;1445;-54
2021/10/06 01:27:43;;;;;;;6.88;2.33;;;;;;;9.68;93.30;100377.28;680454;28;1282;-55
2021/10/06 01:28:04;;;;;;;6.75;2.35;;;;;;;9.67;93.92;100380.75;681280;28;4475;-57
2021/10/06 01:28:24;;;;;;;7.07;2.20;;;;;;;9.61;94.24;100378.16;681056;28;1084;-57
2021/10/06 01:28:54;;;;;;;6.85;2.25;;;;;;;9.59;94.53;100377.31;680872;28;1938;-55
2021/10/06 01:29:14;;;;;;;7.85;2.30;;;;;;;9.68;94.91;100372.06;681370;28;1098;-55
2021/10/06 01:29:35;;;;;;;7.93;2.50;;;;;;;9.67;94.33;100375.53;679625;28;1460;-53
2021/10/06 01:29:55;;;;;;;9.35;2.50;;;;;;;9.65;94.30;100378.16;680289;28;1228;-55
2021/10/06 01:30:16;;;;;;;9.57;2.43;;;;;;;9.63;94.48;100377.28;678753;29;1142;-56
2021/10/06 01:30:36;;;;;;;8.05;2.50;;;;;;;9.60;94.71;100373.84;678955;29;1312;-54
2021/10/06 01:30:57;;;;;;;9.50;2.30;;;;;;;9.53;95.82;100378.22;677949;28;4627;-56
2021/10/06 01:31:18;;;;;;;7.82;2.38;;;;;;;9.48;95.64;100375.59;681116;28;1303;-54
2021/10/06 01:31:38;;;;;;;6.70;1.90;;;;;;;9.51;95.87;100374.72;680846;28;1172;-54
2021/10/06 01:31:59;;;;;;;6.27;1.90;;;;;;;9.51;95.81;100375.63;681241;28;3564;-56
2021/10/06 01:32:20;;;;;;;8.00;2.00;;;;;;;9.49;95.39;100374.75;680526;28;3785;-52
2021/10/06 01:32:42;;;;;;;5.97;1.98;;;;;;;9.49;96.23;100376.50;680772;28;1326;-55
2021/10/06 01:33:02;;;;;;;6.85;2.05;;;;;;;9.46;95.90;100376.53;681378;28;1363;-57
2021/10/06 01:33:23;;;;;;;6.70;2.17;;;;;;;9.44;96.31;100379.13;684151;28;1267;-54
2021/10/06 01:33:44;;;;;;;7.90;2.30;;;;;;;9.44;96.78;100373.91;680808;28;1092;-56
2021/10/06 01:34:04;;;;;;;8.27;2.20;;;;;;;9.49;96.40;100379.97;680977;28;4443;-53
2021/10/06 01:34:25;;;;;;;6.57;2.10;;;;;;;9.54;95.13;100378.22;678391;29;1153;-56
2021/10/06 01:34:57;;;;;;;6.65;2.20;;;;;;;9.53;94.68;100379.06;678876;28;1213;-55
2021/10/06 01:35:18;;;;;;;7.68;1.92;;;;;;;9.52;94.77;100377.34;676134;29;1134;-56
2021/10/06 01:35:38;;;;;;;4.68;1.88;;;;;;;9.52;94.67;100377.34;676705;29;2819;-54
2021/10/06 01:35:59;;;;;;;6.50;2.00;;;;;;;9.58;94.61;100372.97;675527;29;1542;-55
2021/10/06 01:36:19;;;;;;;5.70;1.90;;;;;;;9.58;94.12;100375.56;677421;28;1345;-54
2021/10/06 01:36:39;;;;;;;5.50;1.93;;;;;;;9.56;94.30;100375.59;677809;29;1498;-56
2021/10/06 01:37:00;;;;;;;4.20;1.70;;;;;;;9.54;95.42;100374.75;678552;29;4593;-56
2021/10/06 01:37:20;;;;;;;5.47;1.90;;;;;;;9.49;95.75;100382.56;678565;28;1253;-53
2021/10/06 01:37:42;;;;;;;7.55;2.20;;;;;;;9.48;95.74;100374.75;680767;28;1182;-56
2021/10/06 01:38:03;;;;;;;4.80;1.90;;;;;;;9.47;95.81;100375.63;680063;28;1041;-55
2021/10/06 01:38:23;;;;;;;5.10;1.97;;;;;;;9.54;95.29;100374.75;681795;28;1065;-55
2021/10/06 01:38:44;;;;;;;5.13;1.92;;;;;;;9.57;94.00;100381.66;680503;28;3146;-57
2021/10/06 01:39:06;;;;;;;5.00;1.97;;;;;;;9.57;93.79;100379.94;680891;28;3630;-53
2021/10/06 01:39:26;;;;;;;5.97;1.90;;;;;;;9.59;93.70;100378.16;677894;28;1113;-56
2021/10/06 01:39:47;;;;;;;7.13;1.97;;;;;;;9.64;92.77;100379.03;678998;28;1133;-57
2021/10/06 01:40:12;;;;;;;7.40;1.83;;;;;;;9.64;92.92;100378.16;679852;28;4526;-56
2021/10/06 01:40:33;;;;;;;6.22;2.08;;;;;;;9.61;94.52;100376.44;681531;28;1110;-54